Time;durP1;ratioP1;P1;durP2;ratioP2;P2;SDS_P1;SDS_P2;PMS_P1;PMS_P2;Temp;Humidity;BMP_temperature;BMP_pressure;BME280_temperature;BME280_humidity;BME280_pressure;Samples;Min_cycle;Max_cycle;Signal;HPM_P1;HPM_P2
2023/12/03 00:00:14;;;;;;;30.63;10.13;;;-1.70;79.40;;;;;;4852842;29;20114;-85
2023/12/03 00:02:42;;;;;;;22.60;8.85;;;-1.60;79.70;;;;;;4840715;29;20110;-86
2023/12/03 00:05:10;;;;;;;31.63;10.60;;;-1.50;79.40;;;;;;4851538;29;20113;-85
2023/12/03 00:07:37;;;;;;;24.38;8.27;;;-1.50;78.90;;;;;;4841595;29;20049;-85
2023/12/03 00:10:06;;;;;;;22.90;8.27;;;-1.40;78.50;;;;;;4853800;29;20114;-85
2023/12/03 00:12:33;;;;;;;24.90;7.78;;;-1.40;78.30;;;;;;4852799;29;20053;-86
2023/12/03 00:15:00;;;;;;;22.42;7.95;;;-1.30;78.30;;;;;;4843026;29;20056;-86
2023/12/03 00:17:27;;;;;;;22.07;8.37;;;-1.40;77.50;;;;;;4854828;29;20049;-85
2023/12/03 00:19:54;;;;;;;18.05;6.82;;;-1.50;77.80;;;;;;4839285;29;20049;-85
2023/12/03 00:22:21;;;;;;;18.83;6.72;;;-1.60;77.60;;;;;;4837295;29;20081;-86
2023/12/03 00:24:48;;;;;;;21.95;7.50;;;-1.70;78.20;;;;;;4855726;29;20049;-86
2023/12/03 00:27:16;;;;;;;18.65;7.32;;;-1.60;78.70;;;;;;4838745;29;20053;-86
2023/12/03 00:29:43;;;;;;;20.37;7.63;;;-1.60;78.50;;;;;;4837529;29;20041;-86
2023/12/03 00:32:09;;;;;;;20.55;6.93;;;-1.60;78.60;;;;;;4850316;29;20051;-86
2023/12/03 00:34:37;;;;;;;18.42;5.70;;;-1.60;78.30;;;;;;4838086;29;20059;-85
2023/12/03 00:37:04;;;;;;;15.88;6.75;;;-1.70;78.40;;;;;;4837611;29;20073;-85
2023/12/03 00:39:31;;;;;;;18.75;7.00;;;-1.60;78.50;;;;;;4835851;29;20389;-86
2023/12/03 00:41:58;;;;;;;19.90;6.53;;;-1.60;78.60;;;;;;4862586;29;20049;-86
2023/12/03 00:44:25;;;;;;;17.13;7.03;;;-1.50;78.40;;;;;;4840126;29;20386;-86
2023/12/03 00:46:52;;;;;;;17.95;6.63;;;-1.50;77.90;;;;;;4837395;29;20141;-86
2023/12/03 00:49:19;;;;;;;15.45;5.95;;;-1.50;78.10;;;;;;4854663;29;20061;-85
2023/12/03 00:51:47;;;;;;;15.68;6.18;;;-1.60;78.10;;;;;;4854510;29;20378;-86
2023/12/03 00:54:14;;;;;;;19.23;7.50;;;-1.60;78.20;;;;;;4855247;29;20442;-86
2023/12/03 00:56:41;;;;;;;15.07;6.10;;;-1.50;78.50;;;;;;4839114;29;20041;-85
2023/12/03 00:59:08;;;;;;;17.60;6.40;;;-1.50;78.10;;;;;;4850849;29;20050;-84
2023/12/03 01:01:35;;;;;;;16.60;6.57;;;-1.40;78.10;;;;;;4835958;29;20045;-85
2023/12/03 01:04:02;;;;;;;17.88;7.05;;;-1.30;78.00;;;;;;4835737;29;20148;-86
2023/12/03 01:06:29;;;;;;;21.23;7.23;;;-1.20;77.70;;;;;;4852680;29;20063;-84
2023/12/03 01:08:56;;;;;;;16.60;6.82;;;-1.00;77.50;;;;;;4851658;29;20400;-84
2023/12/03 01:11:23;;;;;;;18.05;6.50;;;-1.10;77.40;;;;;;4849504;29;20045;-85
2023/12/03 01:14:03;;;;;;;19.77;6.97;;;-1.20;77.00;;;;;;4841287;29;20057;-85
2023/12/03 01:16:30;;;;;;;15.65;5.68;;;-1.30;77.30;;;;;;4854147;29;20572;-85
2023/12/03 01:18:58;;;;;;;15.57;6.00;;;-1.30;77.40;;;;;;4836988;29;20086;-85
2023/12/03 01:21:25;;;;;;;18.92;5.88;;;-1.50;77.50;;;;;;4853192;29;20056;-85
2023/12/03 01:23:52;;;;;;;14.30;5.38;;;-1.50;77.80;;;;;;4834222;29;20049;-86
2023/12/03 01:26:20;;;;;;;14.63;4.50;;;-1.50;77.70;;;;;;4852739;29;20053;-85
2023/12/03 01:28:46;;;;;;;12.23;4.30;;;-1.50;77.60;;;;;;4850872;29;20041;-86
2023/12/03 01:31:14;;;;;;;12.60;4.83;;;-1.40;77.40;;;;;;4840110;29;20527;-85
2023/12/03 01:33:41;;;;;;;14.40;5.47;;;-1.40;77.30;;;;;;4839868;29;20408;-85
2023/12/03 01:36:08;;;;;;;13.90;4.80;;;-1.40;77.40;;;;;;4848246;29;20069;-85
2023/12/03 01:38:35;;;;;;;15.95;5.90;;;-1.40;77.20;;;;;;4834797;29;20496;-85
2023/12/03 01:41:02;;;;;;;15.80;5.53;;;-1.40;77.10;;;;;;4837464;29;20583;-85
2023/12/03 01:43:29;;;;;;;12.50;4.40;;;-1.40;77.40;;;;;;4837145;29;20046;-86
2023/12/03 01:45:57;;;;;;;14.93;5.00;;;-1.30;77.20;;;;;;4837492;29;20046;-85
2023/12/03 01:48:25;;;;;;;14.50;4.95;;;-1.30;77.10;;;;;;4839736;29;20504;-86
2023/12/03 01:50:57;;;;;;;13.07;4.72;;;-1.20;76.90;;;;;;4835124;29;20053;-85
2023/12/03 01:53:24;;;;;;;13.68;4.85;;;-1.30;76.70;;;;;;4842921;29;20050;-86
2023/12/03 01:55:52;;;;;;;14.93;5.17;;;-1.40;77.10;;;;;;4840967;29;20061;-86
2023/12/03 01:58:21;;;;;;;13.13;4.38;;;-1.40;77.20;;;;;;4849573;29;20045;-85
2023/12/03 02:00:48;;;;;;;16.20;6.38;;;-1.40;77.10;;;;;;4834727;29;20105;-85
2023/12/03 02:03:17;;;;;;;14.75;4.57;;;-1.40;77.20;;;;;;4841397;29;20053;-85
2023/12/03 02:06:04;;;;;;;13.25;4.22;;;-1.50;77.30;;;;;;4853166;29;20042;-84
2023/12/03 02:08:32;;;;;;;10.63;4.00;;;-1.40;77.30;;;;;;4837581;29;20074;-85
2023/12/03 02:11:00;;;;;;;12.52;4.57;;;-1.40;77.10;;;;;;4833277;29;20508;-84
2023/12/03 02:13:30;;;;;;;12.82;4.35;;;-1.40;77.20;;;;;;4853465;29;20068;-85
2023/12/03 02:15:57;;;;;;;12.82;4.95;;;-1.40;77.10;;;;;;4851608;29;20496;-84
2023/12/03 02:18:26;;;;;;;13.45;5.00;;;-1.40;77.30;;;;;;4839606;29;20086;-85
2023/12/03 02:20:56;;;;;;;14.00;4.87;;;-1.40;77.30;;;;;;4834835;29;20133;-85
2023/12/03 02:23:27;;;;;;;11.15;4.85;;;-1.30;77.60;;;;;;4835822;29;20508;-86
2023/12/03 02:25:54;;;;;;;14.27;5.15;;;-1.30;77.60;;;;;;4836184;29;20081;-86
2023/12/03 02:28:21;;;;;;;13.25;5.25;;;-1.30;77.50;;;;;;4837239;29;20052;-86
2023/12/03 02:30:48;;;;;;;11.93;4.95;;;-1.20;77.60;;;;;;4853088;29;20049;-85
2023/12/03 02:33:15;;;;;;;13.13;4.87;;;-1.20;77.80;;;;;;4853234;29;20049;-85
2023/12/03 02:35:43;;;;;;;12.65;5.53;;;-1.10;77.90;;;;;;4852945;29;20051;-85
2023/12/03 02:38:09;;;;;;;13.32;5.03;;;-1.00;77.80;;;;;;4859635;29;20492;-85
2023/12/03 02:40:38;;;;;;;13.15;4.93;;;-1.00;77.50;;;;;;4851437;29;20077;-85
2023/12/03 02:43:05;;;;;;;13.48;5.00;;;-1.00;77.10;;;;;;4851220;29;20049;-85
2023/12/03 02:45:32;;;;;;;13.57;4.90;;;-1.20;77.00;;;;;;4838803;29;20085;-85
2023/12/03 02:47:59;;;;;;;11.23;4.60;;;-1.20;77.30;;;;;;4827506;29;20046;-85
2023/12/03 02:50:27;;;;;;;16.13;5.82;;;-1.20;77.40;;;;;;4835486;29;20071;-85
2023/12/03 02:52:54;;;;;;;14.23;4.97;;;-1.20;77.50;;;;;;4831364;29;20053;-86
2023/12/03 02:55:21;;;;;;;12.82;5.13;;;-1.10;77.40;;;;;;4832309;29;20045;-85
2023/12/03 02:57:48;;;;;;;15.63;5.77;;;-1.10;77.50;;;;;;4851644;29;20041;-85
2023/12/03 03:00:15;;;;;;;12.07;4.78;;;-1.10;77.60;;;;;;4836668;29;20102;-85
2023/12/03 03:02:43;;;;;;;12.63;4.97;;;-1.20;77.70;;;;;;4836129;29;20105;-85
2023/12/03 03:05:10;;;;;;;13.27;4.85;;;-1.10;77.90;;;;;;4837621;29;20053;-85
2023/12/03 03:07:37;;;;;;;15.30;5.15;;;-1.10;77.80;;;;;;4834796;29;20049;-85
2023/12/03 03:10:04;;;;;;;12.13;4.40;;;-1.00;77.80;;;;;;4837197;29;20053;-85
2023/12/03 03:12:31;;;;;;;12.95;4.55;;;-1.00;77.90;;;;;;4838379;29;20038;-85
2023/12/03 03:14:58;;;;;;;11.10;4.07;;;-1.00;77.70;;;;;;4834964;29;20046;-85
2023/12/03 03:17:25;;;;;;;12.00;4.05;;;-0.90;77.60;;;;;;4833488;29;20066;-85
2023/12/03 03:19:53;;;;;;;10.02;4.00;;;-0.90;77.40;;;;;;4852556;29;20045;-85
2023/12/03 03:22:20;;;;;;;13.27;4.17;;;-0.90;77.30;;;;;;4852688;29;20060;-85
2023/12/03 03:24:47;;;;;;;12.15;4.13;;;-0.90;77.30;;;;;;4839984;29;20431;-85
2023/12/03 03:27:14;;;;;;;363.45;138.60;;;-0.90;77.50;;;;;;4850681;29;20136;-85
2023/12/03 03:29:41;;;;;;;142.73;55.28;;;-0.90;77.40;;;;;;4836953;29;20045;-85
2023/12/03 03:32:08;;;;;;;93.85;36.50;;;-1.00;77.50;;;;;;4851361;29;20074;-85
2023/12/03 03:34:35;;;;;;;196.97;47.87;;;-0.90;77.60;;;;;;4828796;29;20045;-85
2023/12/03 03:37:02;;;;;;;157.63;40.15;;;-0.90;77.50;;;;;;4850031;29;20041;-86
2023/12/03 03:39:29;;;;;;;122.20;32.20;;;-0.80;77.10;;;;;;4840290;29;20508;-85
2023/12/03 03:41:56;;;;;;;41.53;12.40;;;-0.80;77.00;;;;;;4834581;29;20080;-85
2023/12/03 03:44:23;;;;;;;16.33;5.60;;;-0.90;77.10;;;;;;4836078;29;20140;-86
2023/12/03 03:46:51;;;;;;;11.93;4.00;;;-0.90;77.40;;;;;;4833825;29;20050;-85
2023/12/03 03:49:18;;;;;;;12.15;3.97;;;-0.90;77.50;;;;;;4841161;29;20064;-86
2023/12/03 03:51:45;;;;;;;9.60;3.88;;;-1.00;77.60;;;;;;4834771;29;20493;-86
2023/12/03 03:54:12;;;;;;;10.07;4.50;;;-0.90;77.60;;;;;;4833928;29;20437;-85
2023/12/03 03:56:39;;;;;;;12.02;4.32;;;-0.90;77.60;;;;;;4852946;29;20132;-85
2023/12/03 03:59:06;;;;;;;10.47;4.03;;;-0.80;77.60;;;;;;4836107;29;20064;-85
2023/12/03 04:01:33;;;;;;;11.20;4.18;;;-0.80;77.40;;;;;;4852432;29;20053;-84
2023/12/03 04:04:00;;;;;;;11.35;4.20;;;-0.70;77.40;;;;;;4839073;29;20445;-85
2023/12/03 04:06:27;;;;;;;12.10;4.10;;;-0.80;77.20;;;;;;4851117;29;20037;-85
2023/12/03 04:08:54;;;;;;;11.98;4.38;;;-0.80;77.30;;;;;;4843499;29;20042;-86
2023/12/03 04:11:21;;;;;;;11.47;4.07;;;-0.70;77.20;;;;;;4837513;29;20054;-86
2023/12/03 04:13:48;;;;;;;12.55;4.45;;;-0.70;77.10;;;;;;4837799;29;20045;-85
2023/12/03 04:16:22;;;;;;;12.63;4.13;;;-0.70;77.30;;;;;;4840593;29;20259;-85
2023/12/03 04:18:49;;;;;;;11.45;3.67;;;-0.80;77.20;;;;;;4854751;29;20076;-86
2023/12/03 04:21:16;;;;;;;11.65;4.15;;;-0.70;77.30;;;;;;4832539;29;20510;-86
2023/12/03 04:23:43;;;;;;;11.17;3.67;;;-0.70;77.10;;;;;;4856024;29;20481;-85
2023/12/03 04:26:12;;;;;;;11.32;4.20;;;-0.60;77.00;;;;;;4838651;29;20052;-87
2023/12/03 04:28:40;;;;;;;9.05;3.63;;;-0.50;76.70;;;;;;4855378;29;20069;-85
2023/12/03 04:31:22;;;;;;;11.02;3.38;;;-0.50;76.60;;;;;;4851980;29;20046;-85
2023/12/03 04:33:54;;;;;;;11.30;3.70;;;-0.50;76.60;;;;;;4833834;29;20042;-85
2023/12/03 04:36:24;;;;;;;9.30;3.43;;;-0.60;76.70;;;;;;4853702;29;20125;-84
2023/12/03 04:38:55;;;;;;;9.95;3.65;;;-0.60;76.80;;;;;;4837897;29;20065;-85
2023/12/03 04:41:22;;;;;;;10.38;3.38;;;-0.60;76.70;;;;;;4840204;29;20057;-85
2023/12/03 04:43:49;;;;;;;11.40;4.05;;;-0.60;76.70;;;;;;4835918;29;20506;-86
2023/12/03 04:46:16;;;;;;;15.98;5.85;;;-0.50;76.70;;;;;;4839894;29;20054;-85
2023/12/03 04:48:43;;;;;;;17.80;7.53;;;-0.50;76.60;;;;;;4839505;29;20113;-85
2023/12/03 04:51:12;;;;;;;12.73;4.93;;;-0.50;76.70;;;;;;4834367;29;20045;-85
2023/12/03 04:53:39;;;;;;;14.43;4.20;;;-0.50;76.80;;;;;;4855289;29;20052;-85
2023/12/03 04:56:07;;;;;;;9.88;4.00;;;-0.50;76.80;;;;;;4837736;29;20156;-85
2023/12/03 04:58:34;;;;;;;10.50;3.80;;;-0.50;76.90;;;;;;4837402;29;20885;-85
2023/12/03 05:01:02;;;;;;;9.93;3.70;;;-0.60;76.90;;;;;;4854303;29;20408;-85
2023/12/03 05:03:29;;;;;;;28.40;8.75;;;-0.60;77.20;;;;;;4838098;29;20049;-86
2023/12/03 05:05:56;;;;;;;20.98;7.50;;;-0.70;77.30;;;;;;4836994;29;20465;-86
2023/12/03 05:08:23;;;;;;;10.18;3.47;;;-0.70;77.40;;;;;;4837938;29;20511;-85
2023/12/03 05:10:50;;;;;;;11.13;4.85;;;-0.60;77.30;;;;;;4840360;29;20057;-85
2023/12/03 05:13:17;;;;;;;11.27;4.70;;;-0.50;77.00;;;;;;4850801;29;20037;-85
2023/12/03 05:15:44;;;;;;;11.23;4.10;;;-0.50;76.80;;;;;;4840333;29;20057;-86
2023/12/03 05:18:11;;;;;;;9.63;3.50;;;-0.40;76.50;;;;;;4845714;29;20408;-85
2023/12/03 05:20:38;;;;;;;9.15;3.38;;;-0.40;76.70;;;;;;4857248;29;20472;-85
2023/12/03 05:23:05;;;;;;;10.75;3.90;;;-0.40;76.60;;;;;;4836181;29;20097;-85
2023/12/03 05:25:32;;;;;;;9.63;3.43;;;-0.50;76.40;;;;;;4833318;29;20136;-85
2023/12/03 05:27:59;;;;;;;9.25;3.67;;;-0.50;76.90;;;;;;4836203;29;20045;-85
2023/12/03 05:30:27;;;;;;;15.00;5.13;;;-0.70;77.20;;;;;;4857163;29;20042;-84
2023/12/03 05:32:54;;;;;;;21.75;9.80;;;-0.90;77.80;;;;;;4836368;29;20052;-85
2023/12/03 05:35:22;;;;;;;16.48;7.43;;;-0.90;78.10;;;;;;4840022;29;20053;-84
2023/12/03 05:37:50;;;;;;;15.07;7.80;;;-1.00;78.30;;;;;;4834260;29;20038;-85
2023/12/03 05:40:17;;;;;;;18.05;8.27;;;-1.00;78.40;;;;;;4840932;29;20057;-85
2023/12/03 05:42:44;;;;;;;14.00;6.75;;;-1.00;78.50;;;;;;4852787;29;20046;-84
2023/12/03 05:45:11;;;;;;;15.48;8.27;;;-1.10;78.60;;;;;;4849611;29;20122;-85
2023/12/03 05:47:39;;;;;;;24.10;10.80;;;-1.20;79.00;;;;;;4851879;29;20144;-85
2023/12/03 05:50:07;;;;;;;31.57;12.00;;;-1.20;79.10;;;;;;4838338;29;20050;-85
2023/12/03 05:52:34;;;;;;;22.08;8.00;;;-1.20;79.40;;;;;;4837342;29;20045;-84
2023/12/03 05:55:01;;;;;;;13.15;4.82;;;-1.20;79.60;;;;;;4837135;29;20101;-85
2023/12/03 05:57:28;;;;;;;16.20;5.40;;;-1.30;79.70;;;;;;4854077;29;20052;-85
2023/12/03 05:59:55;;;;;;;18.98;5.85;;;-1.40;79.70;;;;;;4836609;29;20053;-86
2023/12/03 06:02:22;;;;;;;11.20;4.33;;;-1.30;79.80;;;;;;4849913;29;20572;-85
2023/12/03 06:04:49;;;;;;;18.95;7.07;;;-1.40;79.60;;;;;;4841307;29;20084;-85
2023/12/03 06:07:17;;;;;;;15.25;6.18;;;-1.40;80.00;;;;;;4836703;29;20474;-85
2023/12/03 06:09:44;;;;;;;18.33;7.20;;;-1.30;80.00;;;;;;4837628;29;20454;-86
2023/12/03 06:12:11;;;;;;;11.32;3.90;;;-1.40;79.80;;;;;;4834471;29;20046;-85
2023/12/03 06:14:39;;;;;;;13.03;5.10;;;;;;;;;;4852071;29;20046;-85
2023/12/03 06:17:07;;;;;;;10.65;4.18;;;-1.50;80.00;;;;;;4832691;29;20041;-85
2023/12/03 06:19:34;;;;;;;12.40;4.80;;;-1.70;80.00;;;;;;4840408;29;20551;-86
2023/12/03 06:22:02;;;;;;;10.40;4.47;;;-1.70;80.40;;;;;;4855592;29;20405;-85
2023/12/03 06:24:29;;;;;;;10.25;4.07;;;-1.60;80.50;;;;;;4841890;29;20053;-87
2023/12/03 06:26:56;;;;;;;10.27;3.40;;;-1.70;80.20;;;;;;4848271;29;20053;-85
2023/12/03 06:29:23;;;;;;;12.10;4.47;;;-1.60;80.30;;;;;;4850443;29;20049;-86
2023/12/03 06:31:50;;;;;;;13.02;4.97;;;-1.70;80.30;;;;;;4837688;29;20512;-86
2023/12/03 06:34:17;;;;;;;11.25;4.30;;;-1.60;80.40;;;;;;4811963;29;20050;-87
2023/12/03 06:36:44;;;;;;;11.00;4.25;;;-1.60;80.30;;;;;;4836801;29;20056;-86
2023/12/03 06:39:11;;;;;;;13.93;5.20;;;-1.50;80.50;;;;;;4839273;29;20053;-86
2023/12/03 06:41:38;;;;;;;12.18;4.95;;;-1.50;80.30;;;;;;4854432;29;20412;-86
2023/12/03 06:44:05;;;;;;;11.05;4.55;;;-1.50;80.20;;;;;;4836388;29;20057;-87
2023/12/03 06:46:40;;;;;;;12.25;5.18;;;-1.50;80.30;;;;;;4849704;29;20460;-86
2023/12/03 06:49:07;;;;;;;11.85;3.60;;;-1.50;79.90;;;;;;4856035;29;20132;-86
2023/12/03 06:51:35;;;;;;;10.97;4.50;;;-1.60;80.30;;;;;;4853340;29;20041;-86
2023/12/03 06:54:02;;;;;;;11.25;4.28;;;-1.60;80.30;;;;;;4838957;29;20504;-85
2023/12/03 06:56:29;;;;;;;12.38;4.47;;;-1.60;80.30;;;;;;4840563;29;20512;-86
2023/12/03 06:58:56;;;;;;;10.88;4.20;;;-1.60;80.60;;;;;;4841474;29;20057;-86
2023/12/03 07:01:23;;;;;;;11.18;4.15;;;-1.60;80.40;;;;;;4835397;29;20105;-87
2023/12/03 07:03:51;;;;;;;12.93;4.80;;;-1.60;80.30;;;;;;4836260;29;20053;-85
2023/12/03 07:06:18;;;;;;;11.18;4.80;;;-1.50;80.70;;;;;;4846182;29;20049;-86
2023/12/03 07:08:45;;;;;;;14.15;4.82;;;-1.50;80.90;;;;;;4839632;29;20185;-86
2023/12/03 07:11:13;;;;;;;12.75;4.40;;;-1.40;80.60;;;;;;4836098;29;20052;-86
2023/12/03 07:13:41;;;;;;;10.73;4.70;;;-1.30;80.20;;;;;;4848874;29;20053;-87
2023/12/03 07:16:10;;;;;;;12.10;4.37;;;-1.40;79.90;;;;;;4836415;29;20499;-87
2023/12/03 07:18:41;;;;;;;11.50;5.00;;;-1.40;80.00;;;;;;4832785;29;20411;-85
2023/12/03 07:21:10;;;;;;;11.30;4.70;;;-1.40;80.30;;;;;;4835998;29;20053;-86
2023/12/03 07:23:38;;;;;;;12.52;5.13;;;-1.30;80.10;;;;;;4835510;29;20053;-86
2023/12/03 07:26:09;;;;;;;12.73;4.88;;;-1.20;79.90;;;;;;4832764;29;20060;-88
2023/12/03 07:28:41;;;;;;;11.30;4.17;;;-1.30;80.00;;;;;;4841547;29;20049;-86
2023/12/03 07:31:08;;;;;;;12.57;5.07;;;-1.20;80.00;;;;;;4842630;29;20064;-87
2023/12/03 07:33:35;;;;;;;11.50;4.50;;;-1.20;79.80;;;;;;4837097;29;20053;-87
2023/12/03 07:36:02;;;;;;;11.48;4.82;;;-1.20;79.50;;;;;;4847600;29;20054;-87
2023/12/03 07:38:29;;;;;;;12.75;4.72;;;-1.30;79.50;;;;;;4845920;29;20515;-87
2023/12/03 07:40:56;;;;;;;11.80;5.00;;;-1.20;79.70;;;;;;4837823;29;20042;-87
2023/12/03 07:43:23;;;;;;;11.70;4.72;;;-1.10;79.70;;;;;;4837111;29;20053;-88
2023/12/03 07:45:50;;;;;;;11.55;4.65;;;-1.10;79.60;;;;;;4835525;29;20053;-87
2023/12/03 07:48:18;;;;;;;12.55;5.32;;;-1.10;79.20;;;;;;4835203;29;20516;-87
2023/12/03 07:50:45;;;;;;;11.13;4.97;;;-1.10;79.30;;;;;;4844500;29;20068;-86
2023/12/03 07:53:12;;;;;;;10.83;4.47;;;-1.10;79.20;;;;;;4841337;29;20045;-85
2023/12/03 07:55:39;;;;;;;12.48;4.88;;;-1.00;78.90;;;;;;4837059;29;20049;-85
2023/12/03 07:58:07;;;;;;;12.90;5.20;;;-1.20;78.50;;;;;;4842435;29;20049;-85
2023/12/03 08:00:34;;;;;;;12.50;5.13;;;-1.20;79.30;;;;;;4838014;29;20516;-85
2023/12/03 08:03:02;;;;;;;12.68;5.15;;;-1.10;79.20;;;;;;4833679;29;20102;-86
2023/12/03 08:05:30;;;;;;;13.23;4.80;;;-1.10;78.80;;;;;;4847601;29;20056;-85
2023/12/03 08:07:58;;;;;;;12.52;5.35;;;-1.00;79.20;;;;;;4859801;29;20454;-86
2023/12/03 08:10:26;;;;;;;12.85;5.25;;;-1.00;79.00;;;;;;4848744;29;20118;-87
2023/12/03 08:12:53;;;;;;;12.40;4.68;;;-0.90;79.00;;;;;;4842693;29;20041;-87
2023/12/03 08:15:20;;;;;;;9.95;4.53;;;-0.80;78.40;;;;;;4840018;29;20049;-85
2023/12/03 08:17:47;;;;;;;11.03;4.87;;;-0.70;77.80;;;;;;4852933;29;20070;-84
2023/12/03 08:20:14;;;;;;;11.60;5.38;;;-0.70;78.00;;;;;;4838814;29;20050;-85
2023/12/03 08:22:41;;;;;;;14.05;5.40;;;-0.70;78.10;;;;;;4835210;29;20101;-84
2023/12/03 08:25:09;;;;;;;14.00;5.88;;;-0.70;78.10;;;;;;4856575;29;20442;-83
2023/12/03 08:27:38;;;;;;;11.63;4.85;;;-0.70;77.70;;;;;;4851893;29;20053;-84
2023/12/03 08:30:06;;;;;;;11.50;4.93;;;-0.70;78.20;;;;;;4845703;29;20045;-85
2023/12/03 08:32:33;;;;;;;11.48;4.75;;;-0.60;77.70;;;;;;4848420;29;20057;-86
2023/12/03 08:35:00;;;;;;;13.68;5.30;;;-0.60;77.60;;;;;;4832852;29;20458;-85
2023/12/03 08:37:27;;;;;;;16.20;5.65;;;-0.60;77.70;;;;;;4853309;29;20069;-85
2023/12/03 08:39:55;;;;;;;12.75;5.50;;;-0.50;77.50;;;;;;4833549;29;20136;-86
2023/12/03 08:42:22;;;;;;;12.93;5.17;;;-0.50;77.50;;;;;;4836809;29;20085;-88
2023/12/03 08:44:49;;;;;;;11.68;4.72;;;-0.40;77.10;;;;;;4846762;29;20424;-88
2023/12/03 08:47:19;;;;;;;13.23;5.35;;;-0.40;76.80;;;;;;4847848;29;20421;-88
2023/12/03 08:49:46;;;;;;;13.13;5.78;;;-0.40;77.10;;;;;;4848235;29;20056;-90
2023/12/03 08:52:15;;;;;;;14.00;5.40;;;-0.20;76.90;;;;;;4835371;29;20050;-92
2023/12/03 08:54:42;;;;;;;14.40;4.67;;;-0.20;76.40;;;;;;4833153;29;20050;-89
2023/12/03 08:57:09;;;;;;;11.23;4.82;;;-0.30;76.20;;;;;;4847721;29;20045;-90
2023/12/03 08:59:37;;;;;;;12.40;5.00;;;-0.20;76.70;;;;;;4835353;29;20508;-91
2023/12/03 09:02:05;;;;;;;11.55;4.60;;;-0.10;76.10;;;;;;4848096;29;20081;-89
2023/12/03 09:04:32;;;;;;;13.02;4.70;;;-0.30;75.70;;;;;;4847911;29;20512;-90
2023/12/03 09:07:00;;;;;;;12.37;5.67;;;-0.40;76.60;;;;;;4847982;29;20129;-90
2023/12/03 09:09:28;;;;;;;13.13;5.47;;;-0.20;76.80;;;;;;4847835;29;20050;-91
2023/12/03 09:11:56;;;;;;;12.23;4.70;;;0.00;76.20;;;;;;4847998;29;20106;-89
2023/12/03 09:14:25;;;;;;;12.90;5.55;;;0.00;75.50;;;;;;4847864;29;20481;-90
2023/12/03 09:16:53;;;;;;;18.35;7.90;;;0.00;75.50;;;;;;4847607;29;20065;-89
2023/12/03 09:19:20;;;;;;;12.57;5.90;;;0.00;75.20;;;;;;4847399;29;20046;-90
2023/12/03 09:21:47;;;;;;;15.13;6.07;;;0.00;75.40;;;;;;4852770;29;20045;-86
2023/12/03 09:24:16;;;;;;;14.82;7.30;;;0.10;75.10;;;;;;4839780;29;20046;-86
2023/12/03 09:26:45;;;;;;;12.93;5.53;;;0.20;74.80;;;;;;4835374;29;20102;-86
2023/12/03 09:29:14;;;;;;;11.65;5.30;;;0.20;74.20;;;;;;4842253;29;20065;-86
2023/12/03 09:31:41;;;;;;;12.63;5.53;;;0.20;74.00;;;;;;4843711;29;20045;-88
2023/12/03 09:34:08;;;;;;;13.73;7.32;;;0.20;73.50;;;;;;4838731;29;20121;-88
2023/12/03 09:36:37;;;;;;;11.60;5.07;;;0.20;74.00;;;;;;4846711;29;20128;-87
2023/12/03 09:39:07;;;;;;;13.02;6.40;;;0.30;73.70;;;;;;4846007;29;20050;-87
2023/12/03 09:41:41;;;;;;;12.82;5.20;;;0.30;73.50;;;;;;4840939;29;20057;-89
2023/12/03 09:44:17;;;;;;;12.37;5.03;;;0.40;73.30;;;;;;4852693;29;20089;-87
2023/12/03 09:46:46;;;;;;;12.68;4.88;;;0.30;73.50;;;;;;4831648;29;20140;-88
2023/12/03 09:49:14;;;;;;;9.63;4.05;;;0.30;73.40;;;;;;4832611;29;20138;-87
2023/12/03 09:51:41;;;;;;;11.30;5.07;;;0.40;72.80;;;;;;4842883;29;20053;-89
2023/12/03 09:54:09;;;;;;;9.80;4.15;;;0.30;72.50;;;;;;4852381;29;20155;-87
2023/12/03 09:56:40;;;;;;;12.80;5.77;;;0.30;72.70;;;;;;4832416;29;20049;-90
2023/12/03 09:59:09;;;;;;;15.10;6.82;;;0.20;72.70;;;;;;4833708;29;20046;-93
2023/12/03 10:01:40;;;;;;;14.95;6.75;;;0.20;73.30;;;;;;4832232;29;20457;-93
2023/12/03 10:04:07;;;;;;;16.15;6.43;;;0.20;73.10;;;;;;4831909;29;20144;-94
2023/12/03 10:06:41;;;;;;;16.13;7.47;;;0.20;72.50;;;;;;4831885;29;20049;-94
2023/12/03 10:09:08;;;;;;;19.27;9.10;;;0.20;72.50;;;;;;4832472;29;20140;-94
2023/12/03 10:11:40;;;;;;;16.45;6.25;;;0.30;72.40;;;;;;4832098;29;20505;-93
2023/12/03 10:14:13;;;;;;;25.63;13.40;;;0.40;72.10;;;;;;4832048;29;20049;-93
2023/12/03 10:16:49;;;;;;;24.50;15.38;;;0.40;72.10;;;;;;4832587;29;20073;-93
2023/12/03 10:19:26;;;;;;;14.10;6.40;;;0.30;72.00;;;;;;4831837;29;20072;-93
2023/12/03 10:21:56;;;;;;;17.77;9.47;;;0.30;71.90;;;;;;4832009;29;20140;-93
2023/12/03 10:24:23;;;;;;;14.88;7.10;;;0.30;71.70;;;;;;4831815;29;20041;-94
2023/12/03 10:26:55;;;;;;;15.45;8.70;;;0.40;71.60;;;;;;4831867;29;20073;-94
2023/12/03 10:29:26;;;;;;;12.38;6.03;;;0.50;71.50;;;;;;4831814;29;20049;-94
2023/12/03 10:31:55;;;;;;;12.77;5.03;;;0.40;71.30;;;;;;4832021;29;20060;-93
2023/12/03 10:34:24;;;;;;;13.47;6.37;;;0.40;71.10;;;;;;4831761;29;20583;-94
2023/12/03 10:36:52;;;;;;;19.27;9.10;;;0.40;71.30;;;;;;4846640;29;20053;-93
2023/12/03 10:39:20;;;;;;;18.13;8.18;;;0.50;71.40;;;;;;4831577;29;20052;-93
2023/12/03 10:41:49;;;;;;;13.40;6.15;;;0.60;71.30;;;;;;4831737;29;20049;-94
2023/12/03 10:44:28;;;;;;;12.02;4.53;;;0.70;70.90;;;;;;4831692;29;20134;-93
2023/12/03 10:46:58;;;;;;;14.63;5.43;;;0.80;70.40;;;;;;4831703;29;20140;-93
2023/12/03 10:49:27;;;;;;;12.02;5.68;;;0.50;70.00;;;;;;4831556;29;20125;-93
2023/12/03 10:51:55;;;;;;;12.52;5.95;;;0.50;70.50;;;;;;4831497;29;20520;-93
2023/12/03 10:54:23;;;;;;;10.73;5.28;;;0.60;70.40;;;;;;4831521;29;20127;-93
2023/12/03 10:56:54;;;;;;;14.50;6.10;;;0.60;70.70;;;;;;4831581;29;20053;-93
2023/12/03 10:59:27;;;;;;;13.27;5.93;;;0.60;70.50;;;;;;4831662;29;20046;-93
2023/12/03 11:01:57;;;;;;;11.63;5.90;;;0.70;70.80;;;;;;4831358;29;20527;-93
2023/12/03 11:04:54;;;;;;;15.15;7.20;;;0.70;70.30;;;;;;4831464;29;20113;-94
2023/12/03 11:07:22;;;;;;;13.00;5.40;;;0.80;70.50;;;;;;4834033;29;20064;-94
2023/12/03 11:09:50;;;;;;;12.75;6.18;;;0.80;70.40;;;;;;4835067;29;20057;-93
2023/12/03 11:12:19;;;;;;;12.37;5.30;;;0.90;70.70;;;;;;4835117;29;20045;-94
2023/12/03 11:14:47;;;;;;;10.70;5.07;;;0.90;70.30;;;;;;4834758;29;20055;-93
2023/12/03 11:17:20;;;;;;;14.23;6.38;;;0.60;70.10;;;;;;4834729;29;20056;-94
2023/12/03 11:19:51;;;;;;;12.32;4.72;;;0.60;70.70;;;;;;4834994;29;20081;-93
2023/12/03 11:22:46;;;;;;;12.57;5.18;;;0.70;70.60;;;;;;4835470;29;20050;-93
2023/12/03 11:25:17;;;;;;;12.77;5.40;;;0.60;70.70;;;;;;4834893;29;20080;-93
2023/12/03 11:27:46;;;;;;;13.15;6.25;;;0.40;70.80;;;;;;4834807;29;20077;-94
2023/12/03 11:30:15;;;;;;;12.15;5.55;;;0.40;70.80;;;;;;4834945;29;20049;-94
2023/12/03 11:32:42;;;;;;;12.75;5.45;;;0.40;71.50;;;;;;4834447;29;20054;-93
2023/12/03 11:35:16;;;;;;;12.27;5.97;;;0.40;70.60;;;;;;4835382;29;20057;-94
2023/12/03 11:37:46;;;;;;;13.77;6.50;;;0.30;70.60;;;;;;4834643;29;20041;-93
2023/12/03 11:40:15;;;;;;;12.80;6.38;;;0.40;70.90;;;;;;4834407;29;20136;-93
2023/12/03 11:42:47;;;;;;;15.82;6.65;;;0.50;71.10;;;;;;4834637;29;20102;-92
2023/12/03 11:45:27;;;;;;;13.60;6.60;;;0.50;70.80;;;;;;4834531;29;20049;-92
2023/12/03 11:48:11;;;;;;;15.15;6.60;;;0.60;70.70;;;;;;4834150;29;20068;-94
2023/12/03 11:50:43;;;;;;;15.80;6.50;;;0.50;70.20;;;;;;4834275;29;20077;-94
2023/12/03 11:53:13;;;;;;;13.43;6.63;;;0.50;70.80;;;;;;4834208;29;20572;-93
2023/12/03 11:55:43;;;;;;;15.75;6.80;;;0.40;70.90;;;;;;4834156;29;20465;-93
2023/12/03 11:58:11;;;;;;;14.82;6.32;;;0.40;71.60;;;;;;4833986;29;20480;-93
2023/12/03 12:00:39;;;;;;;15.73;7.57;;;0.50;71.20;;;;;;4834231;29;20057;-93
2023/12/03 12:03:07;;;;;;;13.30;6.73;;;0.80;70.80;;;;;;4833927;29;20053;-93
2023/12/03 12:05:45;;;;;;;18.40;7.88;;;0.90;70.40;;;;;;4834331;29;20512;-93
2023/12/03 12:08:21;;;;;;;17.85;7.88;;;0.90;69.80;;;;;;4833945;29;20091;-93
2023/12/03 12:10:49;;;;;;;17.55;7.65;;;1.00;69.50;;;;;;4834271;29;20045;-93
2023/12/03 12:13:21;;;;;;;14.32;6.53;;;0.90;69.20;;;;;;4834496;29;20041;-93
2023/12/03 12:15:48;;;;;;;13.70;5.87;;;0.90;69.40;;;;;;4833984;29;20512;-93
2023/12/03 12:18:19;;;;;;;12.10;5.60;;;0.90;69.50;;;;;;4833332;29;20420;-94
2023/12/03 12:20:47;;;;;;;14.40;6.32;;;0.90;69.10;;;;;;4834239;29;20067;-94
2023/12/03 12:23:15;;;;;;;14.00;6.70;;;0.70;69.90;;;;;;4834034;29;20058;-93
2023/12/03 12:25:42;;;;;;;14.80;6.70;;;0.60;70.00;;;;;;4833786;29;20117;-93
2023/12/03 12:28:09;;;;;;;15.60;7.17;;;0.50;70.20;;;;;;4833798;29;20102;-93
2023/12/03 12:30:39;;;;;;;15.13;6.65;;;0.50;69.90;;;;;;4833727;29;20046;-94
2023/12/03 12:33:08;;;;;;;15.63;7.20;;;0.50;70.20;;;;;;4833560;29;20049;-93
2023/12/03 12:35:35;;;;;;;13.60;6.25;;;0.60;70.40;;;;;;4833696;29;20493;-93
2023/12/03 12:38:04;;;;;;;12.60;5.43;;;0.90;70.30;;;;;;4833486;29;20057;-93
2023/12/03 12:40:32;;;;;;;14.53;6.13;;;1.00;69.50;;;;;;4833718;29;20135;-94
2023/12/03 12:43:13;;;;;;;14.35;5.45;;;1.20;68.60;;;;;;4833555;29;20169;-94
2023/12/03 12:45:40;;;;;;;14.30;6.57;;;1.20;68.10;;;;;;4848722;29;20106;-94